sensor_id;sensor_type;location;lat;lon;timestamp;temperature;humidity
546;DHT22;259;53.304;9.816;2023-02-19T00:01:31;16.40;68.00
546;DHT22;259;53.304;9.816;2023-02-19T00:04:01;16.30;67.80
546;DHT22;259;53.304;9.816;2023-02-19T00:06:31;16.30;67.90
546;DHT22;259;53.304;9.816;2023-02-19T00:08:58;16.30;67.90
546;DHT22;259;53.304;9.816;2023-02-19T00:11:26;16.30;67.70
546;DHT22;259;53.304;9.816;2023-02-19T00:13:54;16.30;67.80
546;DHT22;259;53.304;9.816;2023-02-19T00:16:27;16.30;67.80
546;DHT22;259;53.304;9.816;2023-02-19T00:18:58;16.20;67.70
546;DHT22;259;53.304;9.816;2023-02-19T00:21:25;16.20;67.60
546;DHT22;259;53.304;9.816;2023-02-19T00:23:53;16.20;67.70
546;DHT22;259;53.304;9.816;2023-02-19T00:26:21;16.20;67.70
546;DHT22;259;53.304;9.816;2023-02-19T00:28:48;16.20;67.80
546;DHT22;259;53.304;9.816;2023-02-19T00:31:17;16.10;67.70
546;DHT22;259;53.304;9.816;2023-02-19T00:33:45;16.10;67.80
546;DHT22;259;53.304;9.816;2023-02-19T00:36:13;16.10;67.80
546;DHT22;259;53.304;9.816;2023-02-19T00:38:40;16.10;67.80
546;DHT22;259;53.304;9.816;2023-02-19T00:41:09;16.00;67.80
546;DHT22;259;53.304;9.816;2023-02-19T00:43:45;16.00;67.80
546;DHT22;259;53.304;9.816;2023-02-19T00:46:10;16.00;67.90
546;DHT22;259;53.304;9.816;2023-02-19T00:48:36;16.00;67.90
546;DHT22;259;53.304;9.816;2023-02-19T00:51:02;15.90;67.90
546;DHT22;259;53.304;9.816;2023-02-19T00:53:28;15.90;68.00
546;DHT22;259;53.304;9.816;2023-02-19T00:55:54;15.90;68.00
546;DHT22;259;53.304;9.816;2023-02-19T00:58:19;15.90;68.10
546;DHT22;259;53.304;9.816;2023-02-19T01:00:45;15.90;68.10
546;DHT22;259;53.304;9.816;2023-02-19T01:03:11;15.80;68.20
546;DHT22;259;53.304;9.816;2023-02-19T01:05:37;15.80;68.00
546;DHT22;259;53.304;9.816;2023-02-19T01:08:02;15.80;68.10
546;DHT22;259;53.304;9.816;2023-02-19T01:10:28;15.80;68.20
546;DHT22;259;53.304;9.816;2023-02-19T01:12:54;15.70;68.20
546;DHT22;259;53.304;9.816;2023-02-19T01:15:19;15.70;68.20
546;DHT22;259;53.304;9.816;2023-02-19T01:17:45;15.70;68.20
546;DHT22;259;53.304;9.816;2023-02-19T01:20:11;15.70;68.20
546;DHT22;259;53.304;9.816;2023-02-19T01:22:36;15.70;68.20
546;DHT22;259;53.304;9.816;2023-02-19T01:25:02;15.60;68.20
546;DHT22;259;53.304;9.816;2023-02-19T01:27:28;15.60;68.10
546;DHT22;259;53.304;9.816;2023-02-19T01:29:53;15.60;68.30
546;DHT22;259;53.304;9.816;2023-02-19T01:32:19;15.60;68.30
546;DHT22;259;53.304;9.816;2023-02-19T01:34:45;15.50;68.20
546;DHT22;259;53.304;9.816;2023-02-19T01:37:10;15.50;68.30
546;DHT22;259;53.304;9.816;2023-02-19T01:39:37;15.50;68.40
546;DHT22;259;53.304;9.816;2023-02-19T01:42:05;15.50;68.50
546;DHT22;259;53.304;9.816;2023-02-19T01:47:04;15.40;68.30
546;DHT22;259;53.304;9.816;2023-02-19T01:49:41;15.40;68.30
546;DHT22;259;53.304;9.816;2023-02-19T01:52:18;15.40;68.40
546;DHT22;259;53.304;9.816;2023-02-19T01:54:48;15.40;68.50
546;DHT22;259;53.304;9.816;2023-02-19T01:57:26;15.40;68.40
546;DHT22;259;53.304;9.816;2023-02-19T01:59:57;15.30;68.30
546;DHT22;259;53.304;9.816;2023-02-19T02:02:26;15.30;68.40
546;DHT22;259;53.304;9.816;2023-02-19T02:04:54;15.30;68.50
546;DHT22;259;53.304;9.816;2023-02-19T02:07:22;15.30;68.50
546;DHT22;259;53.304;9.816;2023-02-19T02:10:06;15.30;68.60
546;DHT22;259;53.304;9.816;2023-02-19T02:12:45;15.20;68.40
546;DHT22;259;53.304;9.816;2023-02-19T02:15:12;15.20;68.40
546;DHT22;259;53.304;9.816;2023-02-19T02:23:26;15.20;68.50
546;DHT22;259;53.304;9.816;2023-02-19T02:26:44;15.10;68.40
546;DHT22;259;53.304;9.816;2023-02-19T02:32:02;15.10;68.60
546;DHT22;259;53.304;9.816;2023-02-19T02:34:53;15.10;68.60
546;DHT22;259;53.304;9.816;2023-02-19T02:37:24;15.00;68.50
546;DHT22;259;53.304;9.816;2023-02-19T02:39:53;15.00;68.50
546;DHT22;259;53.304;9.816;2023-02-19T02:42:20;15.00;68.60
546;DHT22;259;53.304;9.816;2023-02-19T02:44:56;15.00;68.50
546;DHT22;259;53.304;9.816;2023-02-19T02:47:46;15.00;68.50
546;DHT22;259;53.304;9.816;2023-02-19T02:50:24;15.00;68.50
546;DHT22;259;53.304;9.816;2023-02-19T02:53:06;15.00;68.60
546;DHT22;259;53.304;9.816;2023-02-19T02:55:54;14.90;68.40
546;DHT22;259;53.304;9.816;2023-02-19T02:58:22;14.90;68.40
546;DHT22;259;53.304;9.816;2023-02-19T03:00:53;14.90;68.50
546;DHT22;259;53.304;9.816;2023-02-19T03:03:42;14.90;68.60
546;DHT22;259;53.304;9.816;2023-02-19T03:06:12;14.90;68.60
546;DHT22;259;53.304;9.816;2023-02-19T03:08:47;14.80;68.60
546;DHT22;259;53.304;9.816;2023-02-19T03:11:16;14.80;68.50
546;DHT22;259;53.304;9.816;2023-02-19T03:14:09;14.80;68.60
546;DHT22;259;53.304;9.816;2023-02-19T03:16:59;14.80;68.60
546;DHT22;259;53.304;9.816;2023-02-19T03:19:51;14.80;68.70
546;DHT22;259;53.304;9.816;2023-02-19T03:22:30;14.70;68.60
546;DHT22;259;53.304;9.816;2023-02-19T03:25:00;14.70;68.80
546;DHT22;259;53.304;9.816;2023-02-19T03:27:58;14.70;68.70
546;DHT22;259;53.304;9.816;2023-02-19T03:30:30;14.70;68.90
546;DHT22;259;53.304;9.816;2023-02-19T03:33:06;14.60;68.80
546;DHT22;259;53.304;9.816;2023-02-19T03:35:59;14.60;68.80
546;DHT22;259;53.304;9.816;2023-02-19T03:38:41;14.60;69.00
546;DHT22;259;53.304;9.816;2023-02-19T03:44:10;14.60;68.90
546;DHT22;259;53.304;9.816;2023-02-19T03:46:59;14.50;69.00
546;DHT22;259;53.304;9.816;2023-02-19T03:55:35;14.50;68.80
546;DHT22;259;53.304;9.816;2023-02-19T03:58:32;14.40;68.80
546;DHT22;259;53.304;9.816;2023-02-19T04:01:13;14.40;68.90
546;DHT22;259;53.304;9.816;2023-02-19T04:06:57;14.40;69.20
546;DHT22;259;53.304;9.816;2023-02-19T04:09:27;14.40;69.10
546;DHT22;259;53.304;9.816;2023-02-19T04:11:55;14.30;69.00
546;DHT22;259;53.304;9.816;2023-02-19T04:14:36;14.30;69.00
546;DHT22;259;53.304;9.816;2023-02-19T04:17:15;14.30;69.00
546;DHT22;259;53.304;9.816;2023-02-19T04:19:47;14.30;69.20
546;DHT22;259;53.304;9.816;2023-02-19T04:22:16;14.30;69.10
546;DHT22;259;53.304;9.816;2023-02-19T04:24:50;14.30;69.20
546;DHT22;259;53.304;9.816;2023-02-19T04:27:17;14.20;69.20
546;DHT22;259;53.304;9.816;2023-02-19T04:29:44;14.20;69.10
546;DHT22;259;53.304;9.816;2023-02-19T04:32:11;14.20;69.10
546;DHT22;259;53.304;9.816;2023-02-19T04:34:37;14.20;69.10
546;DHT22;259;53.304;9.816;2023-02-19T04:37:03;14.20;69.10
546;DHT22;259;53.304;9.816;2023-02-19T04:39:29;14.20;69.20
546;DHT22;259;53.304;9.816;2023-02-19T04:41:54;14.20;69.30
546;DHT22;259;53.304;9.816;2023-02-19T04:44:20;14.10;69.30
546;DHT22;259;53.304;9.816;2023-02-19T04:46:46;14.10;70.00
546;DHT22;259;53.304;9.816;2023-02-19T04:49:12;14.10;69.30
546;DHT22;259;53.304;9.816;2023-02-19T04:51:38;14.10;69.30
546;DHT22;259;53.304;9.816;2023-02-19T04:54:04;14.10;69.40
546;DHT22;259;53.304;9.816;2023-02-19T04:56:30;14.00;69.40
546;DHT22;259;53.304;9.816;2023-02-19T04:58:56;14.00;69.50
546;DHT22;259;53.304;9.816;2023-02-19T05:01:22;14.00;69.40
546;DHT22;259;53.304;9.816;2023-02-19T05:03:49;14.00;69.40
546;DHT22;259;53.304;9.816;2023-02-19T05:06:15;14.00;69.50
546;DHT22;259;53.304;9.816;2023-02-19T05:08:41;13.90;69.30
546;DHT22;259;53.304;9.816;2023-02-19T05:11:09;13.90;69.40
546;DHT22;259;53.304;9.816;2023-02-19T05:13:36;13.90;69.50
546;DHT22;259;53.304;9.816;2023-02-19T05:16:07;13.90;69.40
546;DHT22;259;53.304;9.816;2023-02-19T05:18:38;13.90;69.50
546;DHT22;259;53.304;9.816;2023-02-19T05:21:04;13.90;69.50
546;DHT22;259;53.304;9.816;2023-02-19T05:23:30;13.90;69.50
546;DHT22;259;53.304;9.816;2023-02-19T05:25:56;13.90;69.60
546;DHT22;259;53.304;9.816;2023-02-19T05:28:21;13.80;69.40
546;DHT22;259;53.304;9.816;2023-02-19T05:30:53;13.80;69.40
546;DHT22;259;53.304;9.816;2023-02-19T05:33:21;13.80;69.30
546;DHT22;259;53.304;9.816;2023-02-19T05:35:50;13.80;69.30
546;DHT22;259;53.304;9.816;2023-02-19T05:38:18;13.80;69.20
546;DHT22;259;53.304;9.816;2023-02-19T05:40:44;13.80;69.20
546;DHT22;259;53.304;9.816;2023-02-19T05:43:10;13.80;69.30
546;DHT22;259;53.304;9.816;2023-02-19T05:45:37;13.80;69.30
546;DHT22;259;53.304;9.816;2023-02-19T05:48:04;13.80;69.30
546;DHT22;259;53.304;9.816;2023-02-19T05:50:32;13.70;69.20
546;DHT22;259;53.304;9.816;2023-02-19T05:53:00;13.70;69.10
546;DHT22;259;53.304;9.816;2023-02-19T05:55:27;13.70;69.20
546;DHT22;259;53.304;9.816;2023-02-19T05:57:53;13.70;69.40
546;DHT22;259;53.304;9.816;2023-02-19T06:00:20;13.70;69.40
546;DHT22;259;53.304;9.816;2023-02-19T06:02:46;13.70;69.40
546;DHT22;259;53.304;9.816;2023-02-19T06:05:12;13.60;69.20
546;DHT22;259;53.304;9.816;2023-02-19T06:07:39;13.60;69.40
546;DHT22;259;53.304;9.816;2023-02-19T06:10:06;13.60;69.40
546;DHT22;259;53.304;9.816;2023-02-19T06:12:32;13.60;69.50
546;DHT22;259;53.304;9.816;2023-02-19T06:14:58;13.60;69.50
546;DHT22;259;53.304;9.816;2023-02-19T06:17:23;13.60;69.50
546;DHT22;259;53.304;9.816;2023-02-19T06:19:49;13.50;69.50
546;DHT22;259;53.304;9.816;2023-02-19T06:22:15;13.50;69.20
546;DHT22;259;53.304;9.816;2023-02-19T06:24:41;13.50;69.40
546;DHT22;259;53.304;9.816;2023-02-19T06:27:09;13.50;69.40
546;DHT22;259;53.304;9.816;2023-02-19T06:29:35;13.50;69.40
546;DHT22;259;53.304;9.816;2023-02-19T06:32:04;13.50;69.30
546;DHT22;259;53.304;9.816;2023-02-19T06:34:31;13.50;69.40
546;DHT22;259;53.304;9.816;2023-02-19T06:36:58;13.40;69.40
546;DHT22;259;53.304;9.816;2023-02-19T06:39:24;13.40;69.40
546;DHT22;259;53.304;9.816;2023-02-19T06:41:53;13.40;69.50
546;DHT22;259;53.304;9.816;2023-02-19T06:44:19;13.40;69.60
546;DHT22;259;53.304;9.816;2023-02-19T06:46:45;13.40;69.60
546;DHT22;259;53.304;9.816;2023-02-19T06:49:11;13.30;69.50
546;DHT22;259;53.304;9.816;2023-02-19T06:51:36;13.30;69.50
546;DHT22;259;53.304;9.816;2023-02-19T06:54:02;13.30;69.50
546;DHT22;259;53.304;9.816;2023-02-19T06:56:29;13.30;69.60
546;DHT22;259;53.304;9.816;2023-02-19T06:58:59;13.30;69.70
546;DHT22;259;53.304;9.816;2023-02-19T07:01:26;13.30;69.60
546;DHT22;259;53.304;9.816;2023-02-19T07:03:53;13.20;69.60
546;DHT22;259;53.304;9.816;2023-02-19T07:06:20;13.20;69.60
546;DHT22;259;53.304;9.816;2023-02-19T07:08:47;13.20;69.50
546;DHT22;259;53.304;9.816;2023-02-19T07:11:12;13.20;69.70
546;DHT22;259;53.304;9.816;2023-02-19T07:13:38;13.20;69.70
546;DHT22;259;53.304;9.816;2023-02-19T07:16:06;13.20;69.70
546;DHT22;259;53.304;9.816;2023-02-19T07:18:34;13.10;69.60
546;DHT22;259;53.304;9.816;2023-02-19T07:21:11;13.10;69.60
546;DHT22;259;53.304;9.816;2023-02-19T07:23:38;13.10;69.70
546;DHT22;259;53.304;9.816;2023-02-19T07:26:08;13.10;69.70
546;DHT22;259;53.304;9.816;2023-02-19T07:28:34;13.10;69.50
546;DHT22;259;53.304;9.816;2023-02-19T07:31:01;13.10;69.80
546;DHT22;259;53.304;9.816;2023-02-19T07:33:29;13.10;69.70
546;DHT22;259;53.304;9.816;2023-02-19T07:35:55;13.00;69.50
546;DHT22;259;53.304;9.816;2023-02-19T07:38:22;13.10;69.60
546;DHT22;259;53.304;9.816;2023-02-19T07:40:52;13.10;70.50
546;DHT22;259;53.304;9.816;2023-02-19T07:43:18;13.20;73.30
546;DHT22;259;53.304;9.816;2023-02-19T07:45:44;13.20;71.40
546;DHT22;259;53.304;9.816;2023-02-19T07:48:09;13.30;69.60
546;DHT22;259;53.304;9.816;2023-02-19T07:50:36;13.50;69.40
546;DHT22;259;53.304;9.816;2023-02-19T07:53:01;13.80;68.40
546;DHT22;259;53.304;9.816;2023-02-19T07:55:27;14.30;67.50
546;DHT22;259;53.304;9.816;2023-02-19T07:57:53;14.80;66.00
546;DHT22;259;53.304;9.816;2023-02-19T08:00:18;15.40;64.40
546;DHT22;259;53.304;9.816;2023-02-19T08:02:45;16.10;62.80
546;DHT22;259;53.304;9.816;2023-02-19T08:05:29;16.70;61.10
546;DHT22;259;53.304;9.816;2023-02-19T08:07:57;17.50;59.60
546;DHT22;259;53.304;9.816;2023-02-19T08:10:23;18.20;58.60
546;DHT22;259;53.304;9.816;2023-02-19T08:13:14;18.90;57.70
546;DHT22;259;53.304;9.816;2023-02-19T08:15:51;19.50;56.80
546;DHT22;259;53.304;9.816;2023-02-19T08:18:21;20.10;56.00
546;DHT22;259;53.304;9.816;2023-02-19T08:20:49;20.60;55.20
546;DHT22;259;53.304;9.816;2023-02-19T08:23:15;21.10;54.70
546;DHT22;259;53.304;9.816;2023-02-19T08:25:41;21.60;54.20
546;DHT22;259;53.304;9.816;2023-02-19T08:28:09;21.90;53.70
546;DHT22;259;53.304;9.816;2023-02-19T08:30:37;22.20;53.30
546;DHT22;259;53.304;9.816;2023-02-19T08:33:04;22.50;52.80
546;DHT22;259;53.304;9.816;2023-02-19T08:35:30;22.70;52.60
546;DHT22;259;53.304;9.816;2023-02-19T08:37:57;22.90;52.30
546;DHT22;259;53.304;9.816;2023-02-19T08:40:23;23.00;52.20
546;DHT22;259;53.304;9.816;2023-02-19T08:42:50;23.10;52.10
546;DHT22;259;53.304;9.816;2023-02-19T08:45:17;23.20;52.10
546;DHT22;259;53.304;9.816;2023-02-19T08:47:43;23.20;51.70
546;DHT22;259;53.304;9.816;2023-02-19T08:50:09;23.00;49.30
546;DHT22;259;53.304;9.816;2023-02-19T08:52:35;22.80;48.00
546;DHT22;259;53.304;9.816;2023-02-19T08:55:04;22.70;47.90
546;DHT22;259;53.304;9.816;2023-02-19T08:57:30;22.90;48.60
546;DHT22;259;53.304;9.816;2023-02-19T08:59:56;23.20;49.10
546;DHT22;259;53.304;9.816;2023-02-19T09:02:23;23.50;49.10
546;DHT22;259;53.304;9.816;2023-02-19T09:04:49;23.90;49.00
546;DHT22;259;53.304;9.816;2023-02-19T09:07:16;24.20;48.90
546;DHT22;259;53.304;9.816;2023-02-19T09:09:42;24.50;48.90
546;DHT22;259;53.304;9.816;2023-02-19T09:12:09;24.80;48.80
546;DHT22;259;53.304;9.816;2023-02-19T09:14:36;25.10;48.70
546;DHT22;259;53.304;9.816;2023-02-19T09:17:03;25.30;48.50
546;DHT22;259;53.304;9.816;2023-02-19T09:19:31;25.60;48.40
546;DHT22;259;53.304;9.816;2023-02-19T09:21:57;25.80;48.30
546;DHT22;259;53.304;9.816;2023-02-19T09:24:23;26.00;48.10
546;DHT22;259;53.304;9.816;2023-02-19T09:26:53;26.20;48.00
546;DHT22;259;53.304;9.816;2023-02-19T09:29:20;26.30;47.80
546;DHT22;259;53.304;9.816;2023-02-19T09:31:47;26.50;47.80
546;DHT22;259;53.304;9.816;2023-02-19T09:34:13;26.50;47.70
546;DHT22;259;53.304;9.816;2023-02-19T09:36:39;26.60;47.70
546;DHT22;259;53.304;9.816;2023-02-19T09:39:06;26.60;47.80
546;DHT22;259;53.304;9.816;2023-02-19T09:41:37;26.50;47.80
546;DHT22;259;53.304;9.816;2023-02-19T09:47:17;26.50;48.00
546;DHT22;259;53.304;9.816;2023-02-19T09:49:46;26.40;48.10
546;DHT22;259;53.304;9.816;2023-02-19T09:52:39;26.30;48.40
546;DHT22;259;53.304;9.816;2023-02-19T09:55:17;26.20;48.70
546;DHT22;259;53.304;9.816;2023-02-19T09:57:50;26.10;47.50
546;DHT22;259;53.304;9.816;2023-02-19T10:00:32;25.80;45.20
546;DHT22;259;53.304;9.816;2023-02-19T10:03:09;25.40;44.40
546;DHT22;259;53.304;9.816;2023-02-19T10:05:39;25.20;43.80
546;DHT22;259;53.304;9.816;2023-02-19T10:08:11;25.10;43.80
546;DHT22;259;53.304;9.816;2023-02-19T10:10:40;25.10;44.20
546;DHT22;259;53.304;9.816;2023-02-19T10:13:22;25.20;45.40
546;DHT22;259;53.304;9.816;2023-02-19T10:15:58;25.40;45.30
546;DHT22;259;53.304;9.816;2023-02-19T10:18:28;25.50;45.40
546;DHT22;259;53.304;9.816;2023-02-19T10:21:08;25.70;45.60
546;DHT22;259;53.304;9.816;2023-02-19T10:23:36;25.80;45.80
546;DHT22;259;53.304;9.816;2023-02-19T10:26:01;26.00;45.90
546;DHT22;259;53.304;9.816;2023-02-19T10:28:33;26.10;46.00
546;DHT22;259;53.304;9.816;2023-02-19T10:31:02;26.20;46.10
546;DHT22;259;53.304;9.816;2023-02-19T10:33:30;26.30;46.20
546;DHT22;259;53.304;9.816;2023-02-19T10:36:02;26.40;46.20
546;DHT22;259;53.304;9.816;2023-02-19T10:38:44;26.40;46.30
546;DHT22;259;53.304;9.816;2023-02-19T10:41:16;26.40;46.40
546;DHT22;259;53.304;9.816;2023-02-19T10:46:28;26.30;47.00
546;DHT22;259;53.304;9.816;2023-02-19T10:49:02;26.30;47.20
546;DHT22;259;53.304;9.816;2023-02-19T10:51:35;26.20;47.40
546;DHT22;259;53.304;9.816;2023-02-19T10:54:16;26.10;48.20
546;DHT22;259;53.304;9.816;2023-02-19T10:56:43;26.00;48.50
546;DHT22;259;53.304;9.816;2023-02-19T11:01:57;25.90;48.70
546;DHT22;259;53.304;9.816;2023-02-19T11:04:28;25.80;48.60
546;DHT22;259;53.304;9.816;2023-02-19T11:07:14;25.80;48.60
546;DHT22;259;53.304;9.816;2023-02-19T11:09:48;25.70;48.90
546;DHT22;259;53.304;9.816;2023-02-19T11:12:27;25.60;49.10
546;DHT22;259;53.304;9.816;2023-02-19T11:14:54;25.50;49.30
546;DHT22;259;53.304;9.816;2023-02-19T11:17:28;25.40;49.50
546;DHT22;259;53.304;9.816;2023-02-19T11:19:57;25.30;49.70
546;DHT22;259;53.304;9.816;2023-02-19T11:22:32;25.20;49.80
546;DHT22;259;53.304;9.816;2023-02-19T11:25:04;25.00;50.00
546;DHT22;259;53.304;9.816;2023-02-19T11:28:29;24.90;50.20
546;DHT22;259;53.304;9.816;2023-02-19T11:31:26;24.70;50.30
546;DHT22;259;53.304;9.816;2023-02-19T11:34:24;24.50;50.50
546;DHT22;259;53.304;9.816;2023-02-19T11:37:15;24.40;50.70
546;DHT22;259;53.304;9.816;2023-02-19T11:39:44;24.20;50.90
546;DHT22;259;53.304;9.816;2023-02-19T11:45:28;24.00;51.20
546;DHT22;259;53.304;9.816;2023-02-19T11:53:34;23.60;51.70
546;DHT22;259;53.304;9.816;2023-02-19T11:56:22;23.40;51.90
546;DHT22;259;53.304;9.816;2023-02-19T12:22:26;22.30;53.20
546;DHT22;259;53.304;9.816;2023-02-19T12:42:36;21.50;54.20
546;DHT22;259;53.304;9.816;2023-02-19T12:45:19;21.50;54.40
546;DHT22;259;53.304;9.816;2023-02-19T12:50:29;21.30;54.80
546;DHT22;259;53.304;9.816;2023-02-19T12:53:06;21.20;54.80
546;DHT22;259;53.304;9.816;2023-02-19T12:55:51;21.20;54.90
546;DHT22;259;53.304;9.816;2023-02-19T12:58:36;21.10;55.00
546;DHT22;259;53.304;9.816;2023-02-19T13:01:07;21.10;55.10
546;DHT22;259;53.304;9.816;2023-02-19T13:03:40;21.10;55.30
546;DHT22;259;53.304;9.816;2023-02-19T13:06:35;21.00;55.20
546;DHT22;259;53.304;9.816;2023-02-19T13:09:21;21.00;55.30
546;DHT22;259;53.304;9.816;2023-02-19T13:11:58;21.00;55.40
546;DHT22;259;53.304;9.816;2023-02-19T13:17:44;20.90;55.50
546;DHT22;259;53.304;9.816;2023-02-19T13:26:23;20.60;55.80
546;DHT22;259;53.304;9.816;2023-02-19T13:29:37;20.50;56.00
546;DHT22;259;53.304;9.816;2023-02-19T13:38:42;20.40;56.30
546;DHT22;259;53.304;9.816;2023-02-19T13:41:39;20.30;56.40
546;DHT22;259;53.304;9.816;2023-02-19T13:44:25;20.20;56.50
546;DHT22;259;53.304;9.816;2023-02-19T13:46:52;20.20;56.60
546;DHT22;259;53.304;9.816;2023-02-19T13:51:54;20.10;56.80
546;DHT22;259;53.304;9.816;2023-02-19T13:54:28;20.00;56.80
546;DHT22;259;53.304;9.816;2023-02-19T13:59:47;19.90;57.60
546;DHT22;259;53.304;9.816;2023-02-19T14:04:56;19.70;57.20
546;DHT22;259;53.304;9.816;2023-02-19T14:09:56;19.70;57.10
546;DHT22;259;53.304;9.816;2023-02-19T14:12:33;19.70;57.00
546;DHT22;259;53.304;9.816;2023-02-19T14:15:39;19.60;57.40
546;DHT22;259;53.304;9.816;2023-02-19T14:21:34;19.60;59.00
546;DHT22;259;53.304;9.816;2023-02-19T14:24:01;19.60;59.10
546;DHT22;259;53.304;9.816;2023-02-19T14:26:30;19.60;59.40
546;DHT22;259;53.304;9.816;2023-02-19T14:28:57;19.50;59.40
546;DHT22;259;53.304;9.816;2023-02-19T14:31:31;19.50;59.00
546;DHT22;259;53.304;9.816;2023-02-19T14:34:00;19.50;59.40
546;DHT22;259;53.304;9.816;2023-02-19T14:36:55;19.50;60.00
546;DHT22;259;53.304;9.816;2023-02-19T14:39:26;19.50;61.00
546;DHT22;259;53.304;9.816;2023-02-19T14:41:59;19.50;61.70
546;DHT22;259;53.304;9.816;2023-02-19T14:44:30;19.50;62.30
546;DHT22;259;53.304;9.816;2023-02-19T14:47:12;19.40;62.50
546;DHT22;259;53.304;9.816;2023-02-19T14:49:51;19.40;62.80
546;DHT22;259;53.304;9.816;2023-02-19T14:52:35;19.30;63.70
546;DHT22;259;53.304;9.816;2023-02-19T14:57:48;19.30;64.30
546;DHT22;259;53.304;9.816;2023-02-19T15:00:35;19.20;62.50
546;DHT22;259;53.304;9.816;2023-02-19T15:03:03;19.20;63.00
546;DHT22;259;53.304;9.816;2023-02-19T15:05:34;19.10;63.60
546;DHT22;259;53.304;9.816;2023-02-19T15:08:11;19.10;63.20
546;DHT22;259;53.304;9.816;2023-02-19T15:10:42;19.10;63.10
546;DHT22;259;53.304;9.816;2023-02-19T15:13:09;19.00;63.20
546;DHT22;259;53.304;9.816;2023-02-19T15:15:43;18.90;62.80
546;DHT22;259;53.304;9.816;2023-02-19T15:18:25;18.90;63.10
546;DHT22;259;53.304;9.816;2023-02-19T15:21:02;18.80;62.80
546;DHT22;259;53.304;9.816;2023-02-19T15:23:30;18.80;62.50
546;DHT22;259;53.304;9.816;2023-02-19T15:25:57;18.80;62.30
546;DHT22;259;53.304;9.816;2023-02-19T15:33:23;18.70;62.80
546;DHT22;259;53.304;9.816;2023-02-19T15:35:51;18.70;62.80
546;DHT22;259;53.304;9.816;2023-02-19T15:38:18;18.70;62.60
546;DHT22;259;53.304;9.816;2023-02-19T15:40:45;18.60;62.40
546;DHT22;259;53.304;9.816;2023-02-19T15:43:24;18.60;62.30
546;DHT22;259;53.304;9.816;2023-02-19T15:46:18;18.50;62.10
546;DHT22;259;53.304;9.816;2023-02-19T15:51:38;18.50;61.80
546;DHT22;259;53.304;9.816;2023-02-19T15:56:55;18.40;61.50
546;DHT22;259;53.304;9.816;2023-02-19T15:59:38;18.40;61.80
546;DHT22;259;53.304;9.816;2023-02-19T16:02:13;18.30;61.30
546;DHT22;259;53.304;9.816;2023-02-19T16:04:42;18.30;61.30
546;DHT22;259;53.304;9.816;2023-02-19T16:07:26;18.30;61.50
546;DHT22;259;53.304;9.816;2023-02-19T16:10:18;18.20;61.40
546;DHT22;259;53.304;9.816;2023-02-19T16:12:57;18.30;61.50
546;DHT22;259;53.304;9.816;2023-02-19T16:15:24;18.20;61.40
546;DHT22;259;53.304;9.816;2023-02-19T16:17:50;18.20;61.30
546;DHT22;259;53.304;9.816;2023-02-19T16:20:20;18.10;61.10
546;DHT22;259;53.304;9.816;2023-02-19T16:22:56;18.10;61.10
546;DHT22;259;53.304;9.816;2023-02-19T16:25:27;18.10;61.00
546;DHT22;259;53.304;9.816;2023-02-19T16:27:55;18.10;61.10
546;DHT22;259;53.304;9.816;2023-02-19T16:30:30;18.00;61.00
546;DHT22;259;53.304;9.816;2023-02-19T16:33:36;18.00;62.30
546;DHT22;259;53.304;9.816;2023-02-19T16:41:31;17.90;60.30
546;DHT22;259;53.304;9.816;2023-02-19T16:43:57;17.80;60.00
546;DHT22;259;53.304;9.816;2023-02-19T16:46:25;17.80;60.10
546;DHT22;259;53.304;9.816;2023-02-19T16:48:51;17.70;60.10
546;DHT22;259;53.304;9.816;2023-02-19T16:51:24;17.70;60.40
546;DHT22;259;53.304;9.816;2023-02-19T16:53:51;17.70;60.40
546;DHT22;259;53.304;9.816;2023-02-19T16:56:18;17.60;60.40
546;DHT22;259;53.304;9.816;2023-02-19T16:58:48;17.60;60.50
546;DHT22;259;53.304;9.816;2023-02-19T17:01:14;17.50;60.40
546;DHT22;259;53.304;9.816;2023-02-19T17:03:40;17.50;60.50
546;DHT22;259;53.304;9.816;2023-02-19T17:06:06;17.50;60.60
546;DHT22;259;53.304;9.816;2023-02-19T17:08:36;17.40;60.60
546;DHT22;259;53.304;9.816;2023-02-19T17:11:06;17.40;60.60
546;DHT22;259;53.304;9.816;2023-02-19T17:13:37;17.40;60.80
546;DHT22;259;53.304;9.816;2023-02-19T17:16:03;17.30;60.70
546;DHT22;259;53.304;9.816;2023-02-19T17:18:28;17.30;60.80
546;DHT22;259;53.304;9.816;2023-02-19T17:21:20;17.20;60.80
546;DHT22;259;53.304;9.816;2023-02-19T17:23:47;17.20;60.80
546;DHT22;259;53.304;9.816;2023-02-19T17:26:15;17.20;60.90
546;DHT22;259;53.304;9.816;2023-02-19T17:28:42;17.20;61.00
546;DHT22;259;53.304;9.816;2023-02-19T17:31:09;17.20;61.80
546;DHT22;259;53.304;9.816;2023-02-19T17:33:36;17.10;61.00
546;DHT22;259;53.304;9.816;2023-02-19T17:36:02;17.10;61.10
546;DHT22;259;53.304;9.816;2023-02-19T17:38:29;17.00;61.00
546;DHT22;259;53.304;9.816;2023-02-19T17:40:54;17.00;61.10
546;DHT22;259;53.304;9.816;2023-02-19T17:43:20;17.00;61.10
546;DHT22;259;53.304;9.816;2023-02-19T17:45:46;17.00;61.20
546;DHT22;259;53.304;9.816;2023-02-19T17:48:13;16.90;61.10
546;DHT22;259;53.304;9.816;2023-02-19T17:50:39;16.90;61.30
546;DHT22;259;53.304;9.816;2023-02-19T17:53:04;16.90;61.40
546;DHT22;259;53.304;9.816;2023-02-19T17:55:30;16.80;61.30
546;DHT22;259;53.304;9.816;2023-02-19T17:57:57;16.80;61.40
546;DHT22;259;53.304;9.816;2023-02-19T18:00:27;16.80;61.50
546;DHT22;259;53.304;9.816;2023-02-19T18:02:54;16.80;61.50
546;DHT22;259;53.304;9.816;2023-02-19T18:05:21;16.70;61.60
546;DHT22;259;53.304;9.816;2023-02-19T18:07:48;16.70;61.60
546;DHT22;259;53.304;9.816;2023-02-19T18:10:18;16.70;61.70
546;DHT22;259;53.304;9.816;2023-02-19T18:12:44;16.70;61.80
546;DHT22;259;53.304;9.816;2023-02-19T18:15:15;16.60;61.80
546;DHT22;259;53.304;9.816;2023-02-19T18:17:42;16.60;61.90
546;DHT22;259;53.304;9.816;2023-02-19T18:20:12;16.60;62.00
546;DHT22;259;53.304;9.816;2023-02-19T18:22:40;16.50;62.00
546;DHT22;259;53.304;9.816;2023-02-19T18:25:07;16.50;62.00
546;DHT22;259;53.304;9.816;2023-02-19T18:27:33;16.50;62.80
546;DHT22;259;53.304;9.816;2023-02-19T18:29:59;16.40;62.10
546;DHT22;259;53.304;9.816;2023-02-19T18:32:25;16.40;62.20
546;DHT22;259;53.304;9.816;2023-02-19T18:34:54;16.40;62.30
546;DHT22;259;53.304;9.816;2023-02-19T18:37:22;16.40;62.30
546;DHT22;259;53.304;9.816;2023-02-19T18:39:48;16.40;62.40
546;DHT22;259;53.304;9.816;2023-02-19T18:42:14;16.30;62.30
546;DHT22;259;53.304;9.816;2023-02-19T18:44:40;16.30;62.40
546;DHT22;259;53.304;9.816;2023-02-19T18:47:07;16.30;62.50
546;DHT22;259;53.304;9.816;2023-02-19T18:49:33;16.20;62.50
546;DHT22;259;53.304;9.816;2023-02-19T18:51:59;16.20;62.60
546;DHT22;259;53.304;9.816;2023-02-19T18:54:30;16.20;62.60
546;DHT22;259;53.304;9.816;2023-02-19T18:56:56;16.10;62.50
546;DHT22;259;53.304;9.816;2023-02-19T18:59:25;16.10;62.60
546;DHT22;259;53.304;9.816;2023-02-19T19:01:50;16.10;62.80
546;DHT22;259;53.304;9.816;2023-02-19T19:04:16;16.10;62.70
546;DHT22;259;53.304;9.816;2023-02-19T19:06:42;16.00;62.70
546;DHT22;259;53.304;9.816;2023-02-19T19:09:08;16.00;62.70
546;DHT22;259;53.304;9.816;2023-02-19T19:11:34;16.00;62.70
546;DHT22;259;53.304;9.816;2023-02-19T19:14:00;16.00;62.60